createdAt,value
2024-04-14T00:01:52.545Z,99435.60
2024-04-14T00:04:51.674Z,99438.20
2024-04-14T00:07:49.786Z,99432.60
2024-04-14T00:10:47.510Z,99425.60
2024-04-14T00:13:44.741Z,99425.20
2024-04-14T00:16:42.120Z,99420.80
2024-04-14T00:19:39.400Z,99420.60
2024-04-14T00:22:37.249Z,99415.00
2024-04-14T00:25:34.442Z,99415.40
2024-04-14T00:28:31.979Z,99412.60
2024-04-14T00:31:29.131Z,99409.20
2024-04-14T00:34:26.682Z,99404.40
2024-04-14T00:37:23.837Z,99399.60
2024-04-14T00:40:21.282Z,99399.00
2024-04-14T00:43:18.555Z,99393.80
2024-04-14T00:46:16.097Z,99395.40
2024-04-14T00:49:13.399Z,99390.20
2024-04-14T00:52:10.945Z,99388.40
2024-04-14T00:55:08.142Z,99391.40
2024-04-14T00:58:05.590Z,99389.40
2024-04-14T01:01:03.133Z,99389.40
2024-04-14T01:04:00.429Z,99384.20
2024-04-14T01:06:58.250Z,99377.00
2024-04-14T01:09:55.652Z,99375.40
2024-04-14T01:12:53.563Z,99368.80
2024-04-14T01:15:51.368Z,99374.00
2024-04-14T01:18:49.099Z,99366.20
2024-04-14T01:21:46.744Z,99363.20
2024-04-14T01:24:44.054Z,99354.40
2024-04-14T01:27:42.780Z,99351.40
2024-04-14T01:30:40.216Z,99352.40
2024-04-14T01:33:37.848Z,99347.00
2024-04-14T01:36:35.134Z,99341.00
2024-04-14T01:39:32.517Z,99335.20
2024-04-14T01:42:29.977Z,99338.60
2024-04-14T01:45:27.185Z,99336.40
2024-04-14T01:48:24.705Z,99337.40
2024-04-14T01:51:22.010Z,99338.40
2024-04-14T01:54:19.504Z,99332.60
2024-04-14T01:57:16.674Z,99329.60
2024-04-14T02:00:14.134Z,99335.00
2024-04-14T02:03:11.376Z,99335.60
2024-04-14T02:06:09.080Z,99331.60
2024-04-14T02:09:06.316Z,99330.60
2024-04-14T02:12:05.495Z,99330.80
2024-04-14T02:15:02.888Z,99336.00
2024-04-14T02:18:00.191Z,99332.40
2024-04-14T02:20:57.902Z,99324.00
2024-04-14T02:23:55.764Z,99322.60
2024-04-14T02:26:53.217Z,99322.60
2024-04-14T02:29:50.365Z,99321.60
2024-04-14T02:32:47.808Z,99315.60
2024-04-14T02:35:44.979Z,99313.00
2024-04-14T02:38:42.437Z,99313.40
2024-04-14T02:41:39.589Z,99313.00
2024-04-14T02:44:37.007Z,99314.60
2024-04-14T02:47:34.293Z,99305.60
2024-04-14T02:50:32.129Z,99301.00
2024-04-14T02:53:29.582Z,99298.00
2024-04-14T02:56:27.031Z,99297.20
2024-04-14T02:59:24.188Z,99295.80
2024-04-14T03:02:21.616Z,99293.40
2024-04-14T03:05:19.197Z,99288.60
2024-04-14T03:08:16.780Z,99291.80
2024-04-14T03:11:14.333Z,99291.60
2024-04-14T03:14:11.526Z,99281.60
2024-04-14T03:17:09.010Z,99282.00
2024-04-14T03:20:06.690Z,99289.20
2024-04-14T03:23:04.121Z,99283.20
2024-04-14T03:26:02.704Z,99286.00
2024-04-14T03:29:00.138Z,99283.40
2024-04-14T03:31:57.510Z,99286.80
2024-04-14T03:34:55.124Z,99280.00
2024-04-14T03:37:52.593Z,99275.00
2024-04-14T03:40:49.849Z,99271.00
2024-04-14T03:43:47.337Z,99274.60
2024-04-14T03:46:44.491Z,99274.20
2024-04-14T03:49:42.001Z,99270.80
2024-04-14T03:52:39.165Z,99272.20
2024-04-14T03:55:36.705Z,99276.60
2024-04-14T03:58:35.153Z,99276.60
2024-04-14T04:01:32.582Z,99275.40
2024-04-14T04:04:29.819Z,99273.80
2024-04-14T04:07:27.355Z,99275.80
2024-04-14T04:10:24.929Z,99273.00
2024-04-14T04:13:22.079Z,99274.40
2024-04-14T04:16:19.639Z,99271.80
2024-04-14T04:19:25.457Z,99264.60
2024-04-14T04:22:24.799Z,99262.80
2024-04-14T04:25:21.967Z,99259.80
2024-04-14T04:28:19.552Z,99264.60
2024-04-14T04:31:16.727Z,99261.20
2024-04-14T04:34:14.147Z,99260.60
2024-04-14T04:37:11.673Z,99260.80
2024-04-14T04:40:08.886Z,99255.80
2024-04-14T04:43:07.621Z,99252.80
2024-04-14T04:46:04.795Z,99251.80
2024-04-14T04:49:02.518Z,99243.80
2024-04-14T04:51:59.875Z,99247.60
2024-04-14T04:54:58.317Z,99242.00
2024-04-14T04:57:55.626Z,99247.00
2024-04-14T05:00:53.091Z,99250.00
2024-04-14T05:03:51.846Z,99248.60
2024-04-14T05:06:49.141Z,99251.20
2024-04-14T05:09:46.764Z,99251.00
2024-04-14T05:12:43.996Z,99256.00
2024-04-14T05:15:41.683Z,99253.40
2024-04-14T05:18:39.388Z,99251.80
2024-04-14T05:21:36.789Z,99252.20
2024-04-14T05:24:34.409Z,99252.60
2024-04-14T05:27:31.614Z,99252.60
2024-04-14T05:30:29.198Z,99252.60
2024-04-14T05:33:26.593Z,99257.60
2024-04-14T05:36:24.075Z,99255.20
2024-04-14T05:39:21.309Z,99263.40
2024-04-14T05:42:18.795Z,99260.40
2024-04-14T05:45:16.235Z,99268.00
2024-04-14T05:48:14.040Z,99274.00
2024-04-14T05:51:11.665Z,99273.40
2024-04-14T05:54:08.980Z,99274.80
2024-04-14T05:57:06.416Z,99277.00
2024-04-14T06:00:04.625Z,99281.40
2024-04-14T06:03:02.169Z,99279.00
2024-04-14T06:05:59.467Z,99275.40
2024-04-14T06:08:56.952Z,99279.00
2024-04-14T06:11:54.127Z,99281.00
2024-04-14T06:14:51.805Z,99283.80
2024-04-14T06:17:49.111Z,99276.40
2024-04-14T06:24:05.571Z,99281.60
2024-04-14T06:27:02.718Z,99270.80
2024-04-14T06:30:00.168Z,99274.00
2024-04-14T06:32:57.524Z,99274.40
2024-04-14T06:35:56.132Z,99272.80
2024-04-14T06:38:57.292Z,99263.20
2024-04-14T06:41:55.457Z,99264.80
2024-04-14T06:44:52.634Z,99268.60
2024-04-14T06:47:50.152Z,99266.80
2024-04-14T06:50:47.509Z,99266.60
2024-04-14T06:53:44.662Z,99262.40
2024-04-14T06:56:42.220Z,99261.80
2024-04-14T06:59:39.513Z,99265.40
2024-04-14T07:02:37.024Z,99264.20
2024-04-14T07:05:34.265Z,99268.40
2024-04-14T07:08:31.647Z,99261.20
2024-04-14T07:11:29.174Z,99257.40
2024-04-14T07:14:26.457Z,99264.20
2024-04-14T07:17:24.001Z,99267.60
2024-04-14T07:20:21.740Z,99271.40
2024-04-14T07:23:19.093Z,99270.80
2024-04-14T07:26:16.263Z,99274.80
2024-04-14T07:29:13.679Z,99273.60
2024-04-14T07:32:11.522Z,99274.20
2024-04-14T07:35:09.015Z,99270.00
2024-04-14T07:38:06.686Z,99271.40
2024-04-14T07:41:04.236Z,99268.00
2024-04-14T07:44:01.702Z,99268.00
2024-04-14T07:46:58.938Z,99277.80
2024-04-14T07:49:56.409Z,99274.20
2024-04-14T07:52:53.762Z,99273.60
2024-04-14T07:55:55.817Z,99275.20
2024-04-14T07:58:53.164Z,99275.00
2024-04-14T08:01:50.526Z,99270.40
2024-04-14T08:04:47.944Z,99268.80
2024-04-14T08:07:45.461Z,99275.40
2024-04-14T08:10:42.662Z,99273.20
2024-04-14T08:13:40.374Z,99282.60
2024-04-14T08:16:37.874Z,99281.80
2024-04-14T08:19:35.072Z,99281.60
2024-04-14T08:22:32.422Z,99291.60
2024-04-14T08:25:29.708Z,99281.20
2024-04-14T08:28:27.175Z,99287.00
2024-04-14T08:31:24.334Z,99291.20
2024-04-14T08:34:21.769Z,99295.80
2024-04-14T08:37:21.074Z,99291.20
2024-04-14T08:40:19.825Z,99295.00
2024-04-14T08:43:17.000Z,99299.60
2024-04-14T08:46:14.588Z,99298.60
2024-04-14T08:49:12.204Z,99293.80
2024-04-14T08:52:09.477Z,99291.80
2024-04-14T08:55:08.541Z,99308.60
2024-04-14T08:58:05.798Z,99295.60
2024-04-14T09:01:04.009Z,99308.80
2024-04-14T09:04:01.463Z,99303.20
2024-04-14T09:06:58.863Z,99306.80
2024-04-14T09:09:56.474Z,99299.20
2024-04-14T09:12:53.705Z,99306.00
2024-04-14T09:15:51.250Z,99300.40
2024-04-14T09:18:48.600Z,99307.60
2024-04-14T09:21:46.099Z,99305.80
2024-04-14T09:24:43.508Z,99302.20
2024-04-14T09:27:40.793Z,99297.60
2024-04-14T09:30:38.242Z,99289.00
2024-04-14T09:33:35.513Z,99290.00
2024-04-14T09:36:33.301Z,99293.80
2024-04-14T09:39:30.685Z,99303.40
2024-04-14T09:42:28.023Z,99298.00
2024-04-14T09:45:25.377Z,99288.40
2024-04-14T09:48:22.702Z,99286.60
2024-04-14T09:51:20.046Z,99286.60
2024-04-14T09:54:17.319Z,99284.20
2024-04-14T09:57:14.796Z,99283.80
2024-04-14T10:00:11.995Z,99279.80
2024-04-14T10:03:11.210Z,99278.40
2024-04-14T10:06:08.807Z,99286.00
2024-04-14T10:09:06.045Z,99275.80
2024-04-14T10:12:03.601Z,99278.60
2024-04-14T10:15:00.758Z,99280.40
2024-04-14T10:17:58.503Z,99278.00
2024-04-14T10:20:56.828Z,99288.20
2024-04-14T10:23:56.100Z,99276.40
2024-04-14T10:26:53.785Z,99279.40
2024-04-14T10:29:51.219Z,99266.20
2024-04-14T10:32:51.099Z,99264.60
2024-04-14T10:35:49.860Z,99260.40
2024-04-14T10:38:48.444Z,99258.00
2024-04-14T10:41:45.733Z,99256.20
2024-04-14T10:44:46.161Z,99261.80
2024-04-14T10:47:44.744Z,99256.80
2024-04-14T10:50:44.043Z,99252.00
2024-04-14T10:53:42.880Z,99248.00
2024-04-14T10:56:40.051Z,99243.00
2024-04-14T10:59:37.498Z,99253.40
2024-04-14T11:02:34.715Z,99249.00
2024-04-14T11:05:32.897Z,99247.20
2024-04-14T11:08:30.423Z,99244.20
2024-04-14T11:11:27.963Z,99233.80
2024-04-14T11:14:26.144Z,99237.40
2024-04-14T11:17:23.785Z,99234.60
2024-04-14T11:20:21.258Z,99230.40
2024-04-14T11:23:18.429Z,99229.00
2024-04-14T11:26:15.868Z,99226.80
2024-04-14T11:29:13.652Z,99235.80
2024-04-14T11:32:25.033Z,99225.20
2024-04-14T11:35:22.346Z,99220.00
2024-04-14T11:38:19.834Z,99224.60
2024-04-14T11:41:17.289Z,99226.40
2024-04-14T11:44:15.092Z,99216.00
2024-04-14T11:47:12.426Z,99211.80
2024-04-14T11:50:09.610Z,99217.20
2024-04-14T11:53:07.100Z,99206.60
2024-04-14T11:56:04.275Z,99204.80
2024-04-14T11:59:01.748Z,99208.80
2024-04-14T12:01:58.913Z,99203.80
2024-04-14T12:04:56.409Z,99200.20
2024-04-14T12:07:53.751Z,99203.60
2024-04-14T12:10:51.251Z,99190.40
2024-04-14T12:13:48.476Z,99181.80
2024-04-14T12:16:46.057Z,99201.40
2024-04-14T12:19:43.562Z,99183.40
2024-04-14T12:22:40.727Z,99186.20
2024-04-14T12:25:38.222Z,99176.20
2024-04-14T12:28:35.451Z,99174.40
2024-04-14T12:31:32.868Z,99175.20
2024-04-14T12:34:30.137Z,99172.20
2024-04-14T12:37:27.724Z,99168.00
2024-04-14T12:40:25.270Z,99166.20
2024-04-14T12:43:22.460Z,99164.80
2024-04-14T12:46:20.137Z,99164.60
2024-04-14T12:49:17.418Z,99157.20
2024-04-14T12:52:14.906Z,99149.20
2024-04-14T12:55:12.639Z,99146.00
2024-04-14T12:58:10.144Z,99146.60
2024-04-14T13:01:07.795Z,99132.20
2024-04-14T13:04:05.156Z,99134.40
2024-04-14T13:07:02.705Z,99125.00
2024-04-14T13:09:59.932Z,99120.20
2024-04-14T13:12:57.474Z,99118.40
2024-04-14T13:15:54.723Z,99119.40
2024-04-14T13:18:52.203Z,99112.80
2024-04-14T13:21:50.037Z,99114.60
2024-04-14T13:24:47.227Z,99109.40
2024-04-14T13:27:44.732Z,99102.60
2024-04-14T13:30:41.960Z,99104.60
2024-04-14T13:33:39.677Z,99091.60
2024-04-14T13:36:37.069Z,99093.00
2024-04-14T13:39:34.492Z,99091.80
2024-04-14T13:42:31.715Z,99089.20
2024-04-14T13:45:29.194Z,99077.60
2024-04-14T13:48:26.652Z,99081.40
2024-04-14T13:51:23.843Z,99076.60
2024-04-14T13:54:21.332Z,99071.20
2024-04-14T13:57:18.555Z,99068.20
2024-04-14T14:00:16.000Z,99063.80
2024-04-14T14:03:13.176Z,99055.00
2024-04-14T14:06:10.598Z,99055.00
2024-04-14T14:09:07.764Z,99048.20
2024-04-14T14:12:05.099Z,99041.80
2024-04-14T14:15:02.371Z,99035.60
2024-04-14T14:18:00.298Z,99039.80
2024-04-14T14:20:57.789Z,99036.20
2024-04-14T14:23:54.971Z,99039.00
2024-04-14T14:26:52.772Z,99030.60
2024-04-14T14:29:51.276Z,99033.60
2024-04-14T14:32:48.890Z,99035.20
2024-04-14T14:36:04.231Z,99034.80
2024-04-14T14:39:01.401Z,99031.20
2024-04-14T14:41:58.855Z,99026.20
2024-04-14T14:44:56.026Z,99025.00
2024-04-14T14:47:53.599Z,99025.80
2024-04-14T14:50:50.883Z,99019.00
2024-04-14T14:53:48.374Z,99019.40
2024-04-14T14:56:45.922Z,99021.40
2024-04-14T14:59:43.116Z,99026.00
2024-04-14T15:02:40.476Z,99021.60
2024-04-14T15:05:37.648Z,99020.60
2024-04-14T15:08:35.165Z,99022.80
2024-04-14T15:11:32.406Z,99018.80
2024-04-14T15:14:29.785Z,99018.00
2024-04-14T15:17:26.946Z,99010.60
2024-04-14T15:20:24.322Z,99005.00
2024-04-14T15:23:21.527Z,99004.80
2024-04-14T15:26:19.002Z,98999.40
2024-04-14T15:29:16.501Z,98995.20
2024-04-14T15:32:13.761Z,98995.00
2024-04-14T15:35:11.107Z,98998.20
2024-04-14T15:38:08.685Z,98986.60
2024-04-14T15:41:06.206Z,98981.40
2024-04-14T15:44:10.715Z,98974.80
2024-04-14T15:47:12.410Z,98982.00
2024-04-14T15:50:09.793Z,98982.00
2024-04-14T15:53:07.411Z,98976.40
2024-04-14T15:56:04.894Z,98969.40
2024-04-14T15:59:02.346Z,98966.60
2024-04-14T16:01:59.560Z,98962.40
2024-04-14T16:04:57.263Z,98962.40
2024-04-14T16:07:55.884Z,98964.40
2024-04-14T16:10:53.432Z,98964.20
2024-04-14T16:13:50.977Z,98965.60
2024-04-14T16:16:48.186Z,98967.20
2024-04-14T16:19:47.252Z,98967.40
2024-04-14T16:22:44.482Z,98969.20
2024-04-14T16:25:42.026Z,98968.00
2024-04-14T16:28:39.429Z,98971.20
2024-04-14T16:31:36.854Z,98971.00
2024-04-14T16:34:34.082Z,98965.80
2024-04-14T16:37:31.551Z,98963.60
2024-04-14T16:40:29.165Z,98963.60
2024-04-14T16:43:26.382Z,98964.80
2024-04-14T16:46:23.974Z,98962.60
2024-04-14T16:49:21.495Z,98954.40
2024-04-14T16:52:18.903Z,98949.20
2024-04-14T16:55:19.331Z,98949.60
2024-04-14T16:58:16.918Z,98947.60
2024-04-14T17:01:14.501Z,98944.00
2024-04-14T17:04:11.837Z,98940.20
2024-04-14T17:07:09.498Z,98947.60
2024-04-14T17:10:06.821Z,98943.80
2024-04-14T17:13:04.642Z,98947.20
2024-04-14T17:16:01.904Z,98944.40
2024-04-14T17:18:59.346Z,98940.60
2024-04-14T17:21:56.772Z,98940.40
2024-04-14T17:24:54.510Z,98944.20
2024-04-14T17:27:52.202Z,98940.40
2024-04-14T17:30:49.369Z,98941.80
2024-04-14T17:33:46.789Z,98943.00
2024-04-14T17:36:43.994Z,98940.60
2024-04-14T17:39:41.531Z,98942.20
2024-04-14T17:42:38.705Z,98941.20
2024-04-14T17:45:36.348Z,98945.20
2024-04-14T17:48:33.627Z,98943.40
2024-04-14T17:51:31.161Z,98949.40
2024-04-14T17:54:29.078Z,98947.40
2024-04-14T17:57:26.583Z,98944.80
2024-04-14T18:00:23.941Z,98943.80
2024-04-14T18:03:21.183Z,98948.60
2024-04-14T18:06:18.668Z,98950.20
2024-04-14T18:09:15.948Z,98952.80
2024-04-14T18:12:13.444Z,98950.20
2024-04-14T18:15:10.637Z,98951.40
2024-04-14T18:18:08.462Z,98950.40
2024-04-14T18:21:05.664Z,98953.00
2024-04-14T18:24:03.066Z,98958.60
2024-04-14T18:27:00.307Z,98959.80
2024-04-14T18:29:57.841Z,98956.40
2024-04-14T18:32:55.369Z,98958.60
2024-04-14T18:35:52.609Z,98964.40
2024-04-14T18:38:49.946Z,98964.20
2024-04-14T18:41:47.161Z,98960.60
2024-04-14T18:44:44.710Z,98957.40
2024-04-14T18:47:41.990Z,98962.80
2024-04-14T18:50:39.640Z,98960.60
2024-04-14T18:53:36.792Z,98964.40
2024-04-14T18:56:34.243Z,98960.00
2024-04-14T18:59:31.418Z,98958.00
2024-04-14T19:02:28.836Z,98957.40
2024-04-14T19:05:26.042Z,98956.20
2024-04-14T19:08:23.406Z,98958.80
2024-04-14T19:11:20.874Z,98962.20
2024-04-14T19:14:18.077Z,98960.00
2024-04-14T19:17:17.447Z,98964.40
2024-04-14T19:20:14.817Z,98964.60
2024-04-14T19:23:12.558Z,98956.60
2024-04-14T19:26:11.170Z,98956.40
2024-04-14T19:29:09.274Z,98958.60
2024-04-14T19:32:07.407Z,98955.60
2024-04-14T19:35:04.655Z,98945.60
2024-04-14T19:38:02.082Z,98940.20
2024-04-14T19:41:00.377Z,98940.60
2024-04-14T19:43:57.789Z,98939.00
2024-04-14T19:46:55.090Z,98934.20
2024-04-14T19:49:52.770Z,98936.20
2024-04-14T19:52:50.016Z,98927.00
2024-04-14T19:55:47.387Z,98921.80
2024-04-14T19:58:44.642Z,98925.40
2024-04-14T20:01:42.176Z,98918.80
2024-04-14T20:04:39.712Z,98917.40
2024-04-14T20:07:37.042Z,98911.80
2024-04-14T20:10:34.659Z,98914.40
2024-04-14T20:13:31.860Z,98907.20
2024-04-14T20:16:34.485Z,98907.40
2024-04-14T20:19:33.303Z,98909.40
2024-04-14T20:22:30.663Z,98905.80
2024-04-14T20:25:28.128Z,98905.60
2024-04-14T20:28:25.289Z,98903.20
2024-04-14T20:31:22.617Z,98898.20
2024-04-14T20:34:19.848Z,98898.00
2024-04-14T20:37:17.402Z,98891.60
2024-04-14T20:40:14.985Z,98890.80
2024-04-14T20:43:12.382Z,98891.20
2024-04-14T20:46:09.901Z,98891.60
2024-04-14T20:49:07.317Z,98884.00
2024-04-14T20:52:04.965Z,98881.80
2024-04-14T20:55:02.293Z,98883.80
2024-04-14T20:57:59.783Z,98880.80
2024-04-14T21:00:57.292Z,98880.40
2024-04-14T21:03:54.831Z,98872.80
2024-04-14T21:06:52.388Z,98874.40
2024-04-14T21:09:49.706Z,98867.60
2024-04-14T21:12:47.095Z,98862.80
2024-04-14T21:15:44.606Z,98864.00
2024-04-14T21:18:41.985Z,98858.20
2024-04-14T21:21:39.714Z,98855.60
2024-04-14T21:24:37.034Z,98848.80
2024-04-14T21:27:34.588Z,98849.40
2024-04-14T21:30:31.763Z,98846.40
2024-04-14T21:33:29.409Z,98843.00
2024-04-14T21:36:27.122Z,98838.20
2024-04-14T21:39:24.367Z,98836.60
2024-04-14T21:42:22.024Z,98831.00
2024-04-14T21:45:19.222Z,98822.40
2024-04-14T21:48:16.775Z,98825.00
2024-04-14T21:51:14.941Z,98821.80
2024-04-14T21:54:12.140Z,98819.40
2024-04-14T21:57:09.537Z,98814.00
2024-04-14T22:00:07.552Z,98807.80
2024-04-14T22:03:05.000Z,98805.80
2024-04-14T22:06:02.260Z,98801.20
2024-04-14T22:09:00.010Z,98791.60
2024-04-14T22:11:57.505Z,98789.40
2024-04-14T22:14:54.697Z,98781.80
2024-04-14T22:17:52.569Z,98770.40
2024-04-14T22:20:49.770Z,98756.20
2024-04-14T22:23:47.215Z,98753.60
2024-04-14T22:26:44.626Z,98752.40
2024-04-14T22:29:41.788Z,98752.80
2024-04-14T22:32:39.141Z,98744.60
2024-04-14T22:35:36.298Z,98744.00
2024-04-14T22:38:33.839Z,98750.40
2024-04-14T22:41:30.990Z,98740.00
2024-04-14T22:44:28.424Z,98741.00
2024-04-14T22:47:26.763Z,98741.60
2024-04-14T22:50:24.006Z,98733.60
2024-04-14T22:53:21.487Z,98735.20
2024-04-14T22:56:18.700Z,98726.40
2024-04-14T22:59:16.220Z,98725.80
2024-04-14T23:02:13.672Z,98717.80
2024-04-14T23:05:10.822Z,98714.40
2024-04-14T23:08:08.367Z,98703.40
2024-04-14T23:11:05.598Z,98701.20
2024-04-14T23:14:02.994Z,98698.80
2024-04-14T23:17:00.188Z,98698.00
2024-04-14T23:19:57.623Z,98689.40
2024-04-14T23:22:54.977Z,98688.40
2024-04-14T23:25:52.184Z,98683.60
2024-04-14T23:28:49.558Z,98678.80
2024-04-14T23:31:46.717Z,98683.40
2024-04-14T23:34:44.107Z,98678.80
2024-04-14T23:37:41.256Z,98676.00
2024-04-14T23:40:39.495Z,98666.20
2024-04-14T23:43:36.877Z,98662.20
2024-04-14T23:46:34.051Z,98665.60
2024-04-14T23:49:31.468Z,98658.20
2024-04-14T23:52:28.666Z,98655.60
2024-04-14T23:55:26.103Z,98652.40
2024-04-14T23:58:23.509Z,98643.60
